Avera, Georgia
Current Conditions -  °F | °C
As of 2:35 AM on Saturday 01 Nov 2014 (Local Time) from KOKZ Reporting Station
Overcast Overcast  
Wind Chill: 39°   Ceiling: 5500
Heat Index: 45°   Visibility: 10mi
Dew Point: 32°   Wind: 12mph
Humidity: 61%   Direction: 280°W
Pressure: 29.9"   Gusts: 26mph
Location:  33.19°N, 82.53°W
Report Text: KOKZ 010635Z AUTO 28010G23KT 10SM BKN055 BKN065 OVC085 07/00 A2990 RMK AO2 T00700000
Loading
Personal Weather Stations






























Interactive Weather Map
Tropical Storm Tracking
New forecast layout! Learn more

10-Day Weather Forecast

Advertisements
Track Severe Weather on mobile